Time,TemperatureF,DewpointF,PressureIn,WindDirection,WindDirectionDegrees,WindSpeedMPH,WindSpeedGustMPH,Humidity,HourlyPrecipIn,Conditions,Clouds,dailyrainin,SoftwareType,DateUTC
2013-04-08 00:02:00,37.0,27.0,-100.00,SW,219,12.0,18.0,66,0.00,,,-99.99,,2013-04-08 06:02:00,
2013-04-08 00:12:00,37.0,26.0,-100.00,SW,216,12.0,20.0,65,0.00,,,-99.99,,2013-04-08 06:12:00,
2013-04-08 00:22:00,38.0,26.0,-100.00,SSW,213,12.0,17.0,63,0.00,,,-99.99,,2013-04-08 06:22:00,
2013-04-08 00:32:00,38.0,26.0,-100.00,SSW,209,13.0,18.0,61,0.00,,,-99.99,,2013-04-08 06:32:00,
2013-04-08 00:42:00,38.0,26.0,-100.00,SSW,205,12.0,18.0,60,0.00,,,-99.99,,2013-04-08 06:42:00,
2013-04-08 00:52:00,38.0,26.0,-100.00,SSW,196,10.0,15.0,61,0.00,,,-99.99,,2013-04-08 06:52:00,
2013-04-08 01:02:00,37.0,25.0,-100.00,SSW,195,8.0,11.0,62,0.00,,,-99.99,,2013-04-08 07:02:00,
2013-04-08 01:12:00,36.0,25.0,-100.00,South,182,8.0,14.0,62,0.00,,,-99.99,,2013-04-08 07:12:00,
2013-04-08 01:22:00,36.0,25.0,-100.00,South,179,9.0,12.0,62,0.00,,,-99.99,,2013-04-08 07:22:00,
2013-04-08 01:33:00,36.0,25.0,-100.00,South,179,9.0,12.0,62,0.00,,,-99.99,,2013-04-08 07:33:00,
2013-04-08 01:42:00,36.0,23.0,-100.00,South,185,9.0,13.0,60,0.00,,,-99.99,,2013-04-08 07:42:00,
2013-04-08 01:52:00,36.0,23.0,-100.00,South,188,10.0,14.0,59,0.00,,,-99.99,,2013-04-08 07:52:00,
2013-04-08 02:02:00,39.0,19.0,-100.00,SSW,208,13.0,20.0,44,0.00,,,-99.99,,2013-04-08 08:02:00,
2013-04-08 02:12:00,39.0,19.0,-100.00,SSW,208,13.0,20.0,44,0.00,,,-99.99,,2013-04-08 08:12:00,
2013-04-08 02:22:00,39.0,18.0,-100.00,SSW,206,12.0,18.0,43,0.00,,,-99.99,,2013-04-08 08:22:00,
2013-04-08 02:32:00,36.0,23.0,-100.00,WSW,240,6.0,9.0,59,0.00,,,-99.99,,2013-04-08 08:32:00,
2013-04-08 02:42:00,31.0,24.0,-100.00,WNW,282,9.0,11.0,76,0.00,,,-99.99,,2013-04-08 08:42:00,
2013-04-08 02:52:00,31.0,24.0,-100.00,West,277,10.0,12.0,77,0.00,,,-99.99,,2013-04-08 08:52:00,
2013-04-08 03:02:00,31.0,24.0,-100.00,West,265,7.0,10.0,76,0.00,,,-99.99,,2013-04-08 09:02:00,
2013-04-08 03:12:00,32.0,24.0,-100.00,WSW,258,9.0,11.0,75,0.00,,,-99.99,,2013-04-08 09:12:00,
2013-04-08 03:22:00,32.0,25.0,-100.00,West,261,9.0,12.0,73,0.00,,,-99.99,,2013-04-08 09:22:00,
2013-04-08 03:33:00,31.0,22.0,-100.00,SW,227,7.0,10.0,71,0.00,,,-99.99,,2013-04-08 09:33:00,
2013-04-08 03:42:00,30.0,23.0,-100.00,SSE,160,4.0,9.0,75,0.00,,,-99.99,,2013-04-08 09:42:00,
2013-04-08 03:52:00,29.0,26.0,-100.00,NE,55,12.0,15.0,87,0.00,,,-99.99,,2013-04-08 09:52:00,
2013-04-08 04:03:00,29.0,26.0,-100.00,East,85,11.0,18.0,86,0.00,,,-99.99,,2013-04-08 10:03:00,
2013-04-08 04:13:00,30.0,26.0,-100.00,East,100,12.0,21.0,84,0.00,,,-99.99,,2013-04-08 10:13:00,
2013-04-08 04:23:00,31.0,26.0,-100.00,ESE,102,10.0,14.0,82,0.00,,,-99.99,,2013-04-08 10:23:00,
2013-04-08 04:33:00,31.0,26.0,-100.00,East,99,7.0,12.0,82,0.00,,,-99.99,,2013-04-08 10:33:00,
2013-04-08 04:52:00,32.0,26.0,-100.00,ESE,109,12.0,15.0,78,0.00,,,-99.99,,2013-04-08 10:52:00,
2013-04-08 05:02:00,33.0,26.0,-100.00,ESE,102,10.0,14.0,75,0.00,,,-99.99,,2013-04-08 11:02:00,
2013-04-08 05:12:00,33.0,25.0,-100.00,East,95,6.0,11.0,74,0.00,,,-99.99,,2013-04-08 11:12:00,
2013-04-08 05:22:00,33.0,25.0,-100.00,ESE,112,6.0,13.0,72,0.00,,,-99.99,,2013-04-08 11:22:00,
2013-04-08 05:32:00,33.0,26.0,-100.00,East,99,6.0,10.0,72,0.00,,,-99.99,,2013-04-08 11:32:00,
2013-04-08 05:42:00,34.0,26.0,-100.00,SE,127,6.0,9.0,71,0.00,,,-99.99,,2013-04-08 11:42:00,
2013-04-08 05:52:00,35.0,24.0,-100.00,SSW,192,4.0,9.0,63,0.00,,,-99.99,,2013-04-08 11:52:00,
2013-04-08 06:03:00,36.0,23.0,-100.00,SSW,208,7.0,12.0,59,0.00,,,-99.99,,2013-04-08 12:03:00,
2013-04-08 06:12:00,37.0,23.0,-100.00,SSW,209,7.0,10.0,56,0.00,,,-99.99,,2013-04-08 12:12:00,
2013-04-08 06:22:00,35.0,23.0,-100.00,South,182,6.0,10.0,60,0.00,,,-99.99,,2013-04-08 12:22:00,
2013-04-08 06:33:00,36.0,22.0,-100.00,SSW,202,4.0,7.0,56,0.00,,,-99.99,,2013-04-08 12:33:00,
2013-04-08 06:42:00,36.0,22.0,-100.00,South,189,3.0,6.0,57,0.00,,,-99.99,,2013-04-08 12:42:00,
2013-04-08 06:52:00,36.0,22.0,-100.00,SSW,198,2.0,5.0,57,0.00,,,-99.99,,2013-04-08 12:52:00,
2013-04-08 07:02:00,35.0,22.0,-100.00,SW,216,1.0,4.0,58,0.00,,,-99.99,,2013-04-08 13:02:00,
2013-04-08 07:12:00,35.0,24.0,-100.00,West,261,2.0,6.0,63,0.00,,,-99.99,,2013-04-08 13:12:00,
2013-04-08 07:22:00,33.0,24.0,-100.00,West,270,2.0,5.0,69,0.00,,,-99.99,,2013-04-08 13:22:00,
2013-04-08 07:32:00,33.0,25.0,-100.00,West,271,2.0,4.0,70,0.00,,,-99.99,,2013-04-08 13:32:00,
2013-04-08 07:42:00,33.0,25.0,-100.00,West,274,1.0,2.0,70,0.00,,,-99.99,,2013-04-08 13:42:00,
2013-04-08 07:52:00,34.0,25.0,-100.00,SSE,165,3.0,9.0,70,0.00,,,-99.99,,2013-04-08 13:52:00,
2013-04-08 08:02:00,34.0,25.0,-100.00,NE,55,6.0,7.0,69,0.00,,,-99.99,,2013-04-08 14:02:00,
2013-04-08 08:12:00,35.0,25.0,-100.00,ESE,103,5.0,9.0,68,0.00,,,-99.99,,2013-04-08 14:12:00,
2013-04-08 08:32:00,35.0,25.0,-100.00,ESE,109,9.0,12.0,65,0.00,,,-99.99,,2013-04-08 14:32:00,
2013-04-08 08:42:00,36.0,25.0,-100.00,ESE,109,11.0,14.0,64,0.00,,,-99.99,,2013-04-08 14:42:00,
2013-04-08 08:52:00,37.0,24.0,-100.00,ESE,112,11.0,14.0,59,0.00,,,-99.99,,2013-04-08 14:52:00,
2013-04-08 09:02:00,38.0,24.0,-100.00,ESE,112,11.0,14.0,57,0.00,,,-99.99,,2013-04-08 15:02:00,
2013-04-08 09:12:00,38.0,23.0,-100.00,ESE,119,13.0,16.0,54,0.00,,,-99.99,,2013-04-08 15:12:00,
2013-04-08 09:33:00,40.0,20.0,-100.00,ESE,110,17.0,24.0,45,0.00,,,-99.99,,2013-04-08 15:33:00,
2013-04-08 09:42:00,41.0,22.0,-100.00,ESE,109,17.0,23.0,46,0.00,,,-99.99,,2013-04-08 15:42:00,
2013-04-08 09:52:00,42.0,21.0,-100.00,ESE,106,13.0,20.0,44,0.00,,,-99.99,,2013-04-08 15:52:00,
2013-04-08 10:03:00,42.0,20.0,-100.00,ESE,110,15.0,21.0,42,0.00,,,-99.99,,2013-04-08 16:03:00,
2013-04-08 10:13:00,42.0,19.0,-100.00,ESE,109,14.0,19.0,41,0.00,,,-99.99,,2013-04-08 16:13:00,
2013-04-08 10:22:00,41.0,20.0,-100.00,East,99,11.0,18.0,42,0.00,,,-99.99,,2013-04-08 16:22:00,
2013-04-08 10:32:00,41.0,20.0,-100.00,East,99,11.0,18.0,42,0.00,,,-99.99,,2013-04-08 16:32:00,
2013-04-08 10:42:00,42.0,20.0,-100.00,East,90,9.0,15.0,42,0.00,,,-99.99,,2013-04-08 16:42:00,
2013-04-08 10:52:00,42.0,22.0,-100.00,East,95,12.0,20.0,44,0.00,,,-99.99,,2013-04-08 16:52:00,
2013-04-08 11:03:00,43.0,22.0,-100.00,East,85,11.0,19.0,43,0.00,,,-99.99,,2013-04-08 17:03:00,
2013-04-08 11:12:00,44.0,22.0,-100.00,East,82,15.0,22.0,41,0.00,,,-99.99,,2013-04-08 17:12:00,
2013-04-08 11:22:00,44.0,22.0,-100.00,East,85,13.0,19.0,41,0.00,,,-99.99,,2013-04-08 17:22:00,
2013-04-08 11:32:00,44.0,22.0,-100.00,East,100,12.0,22.0,41,0.00,,,-99.99,,2013-04-08 17:32:00,
2013-04-08 11:43:00,46.0,21.0,-100.00,East,97,11.0,21.0,37,0.00,,,-99.99,,2013-04-08 17:43:00,
2013-04-08 11:52:00,47.0,21.0,-100.00,East,95,18.0,28.0,35,0.00,,,-99.99,,2013-04-08 17:52:00,
2013-04-08 12:02:00,46.0,20.0,-100.00,ENE,72,18.0,24.0,35,0.00,,,-99.99,,2013-04-08 18:02:00,
2013-04-08 12:12:00,44.0,22.0,-100.00,NE,40,29.0,35.0,42,0.00,,,-99.99,,2013-04-08 18:12:00,
2013-04-08 12:22:00,44.0,23.0,-100.00,NE,35,26.0,32.0,45,0.00,,,-99.99,,2013-04-08 18:22:00,
2013-04-08 12:32:00,42.0,24.0,-100.00,NE,34,24.0,32.0,48,0.00,,,-99.99,,2013-04-08 18:32:00,
2013-04-08 12:42:00,42.0,24.0,-100.00,NE,37,21.0,27.0,48,0.00,,,-99.99,,2013-04-08 18:42:00,
2013-04-08 12:52:00,43.0,23.0,-100.00,NE,38,19.0,26.0,44,0.00,,,-99.99,,2013-04-08 18:52:00,
2013-04-08 13:02:00,43.0,23.0,-100.00,NE,38,18.0,23.0,44,0.00,,,-99.99,,2013-04-08 19:02:00,
2013-04-08 13:12:00,42.0,24.0,-100.00,NNE,32,15.0,22.0,47,0.00,,,-99.99,,2013-04-08 19:12:00,
2013-04-08 13:22:00,43.0,24.0,-100.00,NNE,28,14.0,19.0,48,0.00,,,-99.99,,2013-04-08 19:22:00,
2013-04-08 13:33:00,45.0,22.0,-100.00,NE,52,17.0,27.0,39,0.00,,,-99.99,,2013-04-08 19:33:00,
2013-04-08 13:42:00,44.0,23.0,-100.00,ENE,64,21.0,37.0,43,0.00,,,-99.99,,2013-04-08 19:42:00,
2013-04-08 13:52:00,43.0,25.0,-100.00,ENE,58,24.0,35.0,47,0.00,,,-99.99,,2013-04-08 19:52:00,
2013-04-08 14:02:00,44.0,26.0,-100.00,NE,49,24.0,35.0,49,0.00,,,-99.99,,2013-04-08 20:02:00,
2013-04-08 14:12:00,43.0,25.0,-100.00,NE,40,22.0,31.0,48,0.00,,,-99.99,,2013-04-08 20:12:00,
2013-04-08 14:22:00,40.0,27.0,-100.00,NE,48,26.0,38.0,60,0.00,,,-99.99,,2013-04-08 20:22:00,
2013-04-08 14:33:00,39.0,29.0,-100.00,NE,41,27.0,37.0,69,0.00,,,-99.99,,2013-04-08 20:33:00,
2013-04-08 14:42:00,38.0,29.0,-100.00,NE,42,26.0,32.0,71,0.00,,,-99.99,,2013-04-08 20:42:00,
2013-04-08 14:52:00,38.0,29.0,-100.00,NE,41,24.0,30.0,70,0.00,,,-99.99,,2013-04-08 20:52:00,
2013-04-08 15:02:00,37.0,29.0,-100.00,NE,45,23.0,32.0,73,0.00,,,-99.99,,2013-04-08 21:02:00,
2013-04-08 15:12:00,40.0,29.0,-100.00,ENE,58,24.0,32.0,64,0.00,,,-99.99,,2013-04-08 21:12:00,
2013-04-08 15:22:00,38.0,29.0,-100.00,NE,56,25.0,34.0,69,0.00,,,-99.99,,2013-04-08 21:22:00,
2013-04-08 15:32:00,37.0,29.0,-100.00,NE,47,26.0,32.0,74,0.00,,,-99.99,,2013-04-08 21:32:00,
2013-04-08 15:43:00,34.0,29.0,-100.00,NE,40,22.0,31.0,81,0.00,,,-99.99,,2013-04-08 21:43:00,
2013-04-08 15:52:00,32.0,27.0,-100.00,NE,40,19.0,24.0,82,0.00,,,-99.99,,2013-04-08 21:52:00,
2013-04-08 16:03:00,31.0,26.0,-100.00,NNE,28,19.0,23.0,84,0.00,,,-99.99,,2013-04-08 22:03:00,
2013-04-08 16:22:00,28.0,25.0,-100.00,NE,38,19.0,24.0,88,0.03,,,-99.99,,2013-04-08 22:22:00,
2013-04-08 16:32:00,28.0,25.0,-100.00,NE,38,19.0,24.0,88,0.03,,,-99.99,,2013-04-08 22:32:00,
2013-04-08 16:52:00,26.0,25.0,-100.00,NNE,31,17.0,21.0,95,0.06,,,-99.99,,2013-04-08 22:52:00,
2013-04-08 17:02:00,25.0,24.0,-100.00,NNE,32,21.0,26.0,95,0.13,,,-99.99,,2013-04-08 23:02:00,
2013-04-08 17:12:00,25.0,24.0,-100.00,NE,34,21.0,26.0,96,0.28,,,-99.99,,2013-04-08 23:12:00,
2013-04-08 17:22:00,25.0,24.0,-100.00,NE,34,21.0,26.0,96,0.28,,,-99.99,,2013-04-08 23:22:00,
2013-04-08 17:32:00,24.0,23.0,-100.00,ENE,62,9.0,11.0,96,0.03,,,-99.99,,2013-04-08 23:32:00,
2013-04-08 17:42:00,24.0,23.0,-100.00,ENE,66,7.0,12.0,96,0.06,,,-99.99,,2013-04-08 23:42:00,
2013-04-08 17:52:00,23.0,22.0,-100.00,ENE,65,9.0,16.0,96,0.10,,,-99.99,,2013-04-08 23:52:00,
2013-04-08 18:02:00,22.0,21.0,-100.00,NE,56,12.0,16.0,96,0.00,,,-99.99,,2013-04-09 00:02:00,
2013-04-08 18:12:00,22.0,21.0,-100.00,ENE,59,12.0,15.0,96,0.00,,,-99.99,,2013-04-09 00:12:00,
2013-04-08 18:22:00,22.0,21.0,-100.00,NE,55,13.0,17.0,95,0.00,,,-99.99,,2013-04-09 00:22:00,
2013-04-08 18:32:00,22.0,21.0,-100.00,NE,49,15.0,17.0,95,0.00,,,-99.99,,2013-04-09 00:32:00,
2013-04-08 18:42:00,22.0,21.0,-100.00,ENE,58,13.0,17.0,95,0.00,,,-99.99,,2013-04-09 00:42:00,
2013-04-08 18:52:00,22.0,20.0,-100.00,ENE,65,10.0,13.0,95,0.00,,,-99.99,,2013-04-09 00:52:00,
2013-04-08 19:02:00,22.0,20.0,-100.00,ENE,69,7.0,10.0,95,0.00,,,-99.99,,2013-04-09 01:02:00,
2013-04-08 19:12:00,22.0,20.0,-100.00,ENE,72,7.0,9.0,95,0.00,,,-99.99,,2013-04-09 01:12:00,
2013-04-08 19:22:00,22.0,20.0,-100.00,NE,49,7.0,9.0,95,0.00,,,-99.99,,2013-04-09 01:22:00,
2013-04-08 19:33:00,21.0,20.0,-100.00,NE,35,8.0,12.0,95,0.00,,,-99.99,,2013-04-09 01:33:00,
2013-04-08 19:42:00,21.0,20.0,-100.00,NE,37,9.0,12.0,95,0.06,,,-99.99,,2013-04-09 01:42:00,
2013-04-08 19:52:00,20.0,19.0,-100.00,NE,47,10.0,15.0,95,0.00,,,-99.99,,2013-04-09 01:52:00,
2013-04-08 20:02:00,20.0,18.0,-100.00,NE,37,11.0,12.0,95,0.03,,,-99.99,,2013-04-09 02:02:00,
2013-04-08 20:12:00,19.0,18.0,-100.00,NNE,24,7.0,11.0,95,0.03,,,-99.99,,2013-04-09 02:12:00,
2013-04-08 20:22:00,19.0,18.0,-100.00,NE,38,9.0,13.0,95,0.01,,,-99.99,,2013-04-09 02:22:00,
2013-04-08 20:32:00,19.0,18.0,-100.00,NE,40,9.0,14.0,95,0.01,,,-99.99,,2013-04-09 02:32:00,
2013-04-08 20:42:00,19.0,17.0,-100.00,NE,40,11.0,14.0,95,0.00,,,-99.99,,2013-04-09 02:42:00,
2013-04-08 20:52:00,18.0,17.0,-100.00,NNE,31,10.0,14.0,95,0.01,,,-99.99,,2013-04-09 02:52:00,
2013-04-08 21:02:00,18.0,16.0,-100.00,NNE,30,12.0,20.0,94,0.01,,,-99.99,,2013-04-09 03:02:00,
2013-04-08 21:12:00,17.0,16.0,-100.00,NNE,30,17.0,23.0,94,0.01,,,-99.99,,2013-04-09 03:12:00,
2013-04-08 21:21:00,17.0,16.0,-100.00,NNE,25,18.0,22.0,94,0.00,,,-99.99,,2013-04-09 03:21:00,
2013-04-08 21:33:00,17.0,15.0,-100.00,NNE,28,17.0,21.0,94,0.00,,,-99.99,,2013-04-09 03:33:00,
2013-04-08 21:52:00,16.0,15.0,-100.00,NE,34,17.0,21.0,94,0.00,,,-99.99,,2013-04-09 03:52:00,
2013-04-08 22:03:00,16.0,15.0,-100.00,NE,40,13.0,17.0,94,0.03,,,-99.99,,2013-04-09 04:03:00,
2013-04-08 22:13:00,16.0,15.0,-100.00,NE,48,11.0,14.0,94,0.03,,,-99.99,,2013-04-09 04:13:00,
2013-04-08 22:23:00,16.0,15.0,-100.00,ENE,73,6.0,9.0,94,0.01,,,-99.99,,2013-04-09 04:23:00,
2013-04-08 22:32:00,15.0,14.0,-100.00,East,93,6.0,10.0,94,0.01,,,-99.99,,2013-04-09 04:32:00,
2013-04-08 22:42:00,15.0,14.0,-100.00,East,85,7.0,11.0,94,0.00,,,-99.99,,2013-04-09 04:42:00,
2013-04-08 22:52:00,15.0,14.0,-100.00,East,85,7.0,11.0,94,0.00,,,-99.99,,2013-04-09 04:52:00,
2013-04-08 23:02:00,15.0,13.0,-100.00,East,95,7.0,13.0,93,0.00,,,-99.99,,2013-04-09 05:02:00,
2013-04-08 23:12:00,15.0,13.0,-100.00,East,95,7.0,15.0,93,0.00,,,-99.99,,2013-04-09 05:12:00,
2013-04-08 23:22:00,15.0,13.0,-100.00,ESE,106,12.0,16.0,93,0.01,,,-99.99,,2013-04-09 05:22:00,
2013-04-08 23:32:00,14.0,13.0,-100.00,ESE,110,12.0,18.0,93,0.01,,,-99.99,,2013-04-09 05:32:00,
2013-04-08 23:42:00,13.0,12.0,-100.00,East,93,9.0,12.0,93,0.01,,,-99.99,,2013-04-09 05:42:00,
2013-04-08 23:52:00,13.0,11.0,-100.00,East,95,7.0,12.0,93,0.00,,,-99.99,,2013-04-09 05:52:00,